createdAt,value
2023-03-07T00:00:43.379Z,0.00
2023-03-07T00:01:43.568Z,0.00
2023-03-07T00:02:43.766Z,0.00
2023-03-07T00:03:43.909Z,0.00
2023-03-07T00:04:44.083Z,0.00
2023-03-07T00:05:44.269Z,0.00
2023-03-07T00:06:44.484Z,0.00
2023-03-07T00:07:44.626Z,0.00
2023-03-07T00:08:44.811Z,0.00
2023-03-07T00:09:45.026Z,0.00
2023-03-07T00:10:45.184Z,0.00
2023-03-07T00:11:45.372Z,0.00
2023-03-07T00:12:45.524Z,0.00
2023-03-07T00:13:45.682Z,0.00
2023-03-07T00:14:45.873Z,0.00
2023-03-07T00:15:46.051Z,0.00
2023-03-07T00:16:46.193Z,0.00
2023-03-07T00:17:46.332Z,0.00
2023-03-07T00:18:46.544Z,0.00
2023-03-07T00:19:46.737Z,0.00
2023-03-07T00:20:46.885Z,0.00
2023-03-07T00:21:47.084Z,0.00
2023-03-07T00:22:47.242Z,0.00
2023-03-07T00:23:47.465Z,0.00
2023-03-07T00:24:47.594Z,0.00
2023-03-07T00:25:47.744Z,0.00
2023-03-07T00:26:47.903Z,0.00
2023-03-07T00:27:48.093Z,0.00
2023-03-07T00:28:48.293Z,0.00
2023-03-07T00:29:48.472Z,0.00
2023-03-07T00:30:48.701Z,0.00
2023-03-07T00:31:48.939Z,0.00
2023-03-07T00:32:48.946Z,0.00
2023-03-07T00:33:49.124Z,0.00
2023-03-07T00:34:49.324Z,0.00
2023-03-07T00:35:49.505Z,0.00
2023-03-07T00:36:49.671Z,0.00
2023-03-07T00:37:49.839Z,0.00
2023-03-07T00:38:50.046Z,0.00
2023-03-07T00:39:55.398Z,0.00
2023-03-07T00:40:50.366Z,0.00
2023-03-07T00:41:50.563Z,0.00
2023-03-07T00:42:50.740Z,0.00
2023-03-07T00:43:50.941Z,0.00
2023-03-07T00:44:51.100Z,0.00
2023-03-07T00:45:51.317Z,0.00
2023-03-07T00:46:51.393Z,0.00
2023-03-07T00:47:51.594Z,0.00
2023-03-07T00:48:51.771Z,0.00
2023-03-07T00:49:51.979Z,0.00
2023-03-07T00:50:52.125Z,0.00
2023-03-07T00:51:52.300Z,0.00
2023-03-07T00:52:52.487Z,0.00
2023-03-07T00:53:52.684Z,0.00
2023-03-07T00:54:52.882Z,0.00
2023-03-07T00:55:53.031Z,0.00
2023-03-07T00:56:53.218Z,0.00
2023-03-07T00:57:53.400Z,0.00
2023-03-07T00:58:53.604Z,0.00
2023-03-07T00:59:53.777Z,0.00
2023-03-07T01:00:53.949Z,0.00
2023-03-07T01:01:54.124Z,0.00
2023-03-07T01:02:56.355Z,0.00
2023-03-07T01:03:54.517Z,0.00
2023-03-07T01:04:54.598Z,0.00
2023-03-07T01:05:54.779Z,0.00
2023-03-07T01:06:54.957Z,0.00
2023-03-07T01:07:55.150Z,0.00
2023-03-07T01:08:55.326Z,0.00
2023-03-07T01:09:55.539Z,0.00
2023-03-07T01:10:55.680Z,0.00
2023-03-07T01:11:55.875Z,0.00
2023-03-07T01:12:56.027Z,0.00
2023-03-07T01:13:56.209Z,0.00
2023-03-07T01:14:56.393Z,0.00
2023-03-07T01:15:56.577Z,0.00
2023-03-07T01:16:56.927Z,0.00
2023-03-07T01:17:56.948Z,0.00
2023-03-07T01:18:57.123Z,0.00
2023-03-07T01:19:57.326Z,0.00
2023-03-07T01:20:57.462Z,0.00
2023-03-07T01:21:57.666Z,0.00
2023-03-07T01:22:57.821Z,0.00
2023-03-07T01:23:57.971Z,0.00
2023-03-07T01:24:58.162Z,0.00
2023-03-07T01:25:58.332Z,0.00
2023-03-07T01:26:58.555Z,0.00
2023-03-07T01:27:58.707Z,0.00
2023-03-07T01:28:58.888Z,0.00
2023-03-07T01:29:59.069Z,0.00
2023-03-07T01:30:59.245Z,0.00
2023-03-07T01:31:59.516Z,0.00
2023-03-07T01:32:59.630Z,0.00
2023-03-07T01:33:59.798Z,0.00
2023-03-07T01:34:59.947Z,0.00
2023-03-07T01:36:00.338Z,0.00
2023-03-07T01:37:00.310Z,0.00
2023-03-07T01:38:00.462Z,0.00
2023-03-07T01:39:00.660Z,0.00
2023-03-07T01:40:00.808Z,0.00
2023-03-07T01:41:00.994Z,0.00
2023-03-07T01:42:01.204Z,0.00
2023-03-07T01:43:01.357Z,0.00
2023-03-07T01:44:01.540Z,0.00
2023-03-07T01:45:01.692Z,0.00
2023-03-07T01:46:01.950Z,0.00
2023-03-07T01:47:02.045Z,0.00
2023-03-07T01:48:02.192Z,0.00
2023-03-07T01:49:02.373Z,0.00
2023-03-07T01:50:02.606Z,0.00
2023-03-07T01:51:02.719Z,0.00
2023-03-07T01:52:02.944Z,0.00
2023-03-07T01:53:03.055Z,0.00
2023-03-07T01:54:03.267Z,0.00
2023-03-07T01:55:03.436Z,0.00
2023-03-07T01:56:03.577Z,0.00
2023-03-07T01:57:03.759Z,0.00
2023-03-07T01:58:03.908Z,0.00
2023-03-07T01:59:04.066Z,0.00
2023-03-07T02:00:04.221Z,0.00
2023-03-07T02:01:04.426Z,0.00
2023-03-07T02:02:04.600Z,0.00
2023-03-07T02:03:04.764Z,0.00
2023-03-07T02:04:04.980Z,0.00
2023-03-07T02:05:05.076Z,0.00
2023-03-07T02:06:05.246Z,0.00
2023-03-07T02:07:05.420Z,0.00
2023-03-07T02:08:05.586Z,0.00
2023-03-07T02:09:05.750Z,0.00
2023-03-07T02:10:05.921Z,0.00
2023-03-07T02:11:06.088Z,0.00
2023-03-07T02:12:06.281Z,0.00
2023-03-07T02:13:06.420Z,0.00
2023-03-07T02:14:06.587Z,0.00
2023-03-07T02:15:06.766Z,0.00
2023-03-07T02:16:06.971Z,0.00
2023-03-07T02:17:07.200Z,0.00
2023-03-07T02:18:07.281Z,0.00
2023-03-07T02:19:07.434Z,0.00
2023-03-07T02:20:07.603Z,0.00
2023-03-07T02:21:07.755Z,0.00
2023-03-07T02:22:07.976Z,0.00
2023-03-07T02:23:08.117Z,0.00
2023-03-07T02:24:08.328Z,0.00
2023-03-07T02:25:08.484Z,0.00
2023-03-07T02:26:08.649Z,0.00
2023-03-07T02:27:08.822Z,0.00
2023-03-07T02:28:08.972Z,0.00
2023-03-07T02:29:09.135Z,0.00
2023-03-07T02:30:09.299Z,0.00
2023-03-07T02:31:09.487Z,0.00
2023-03-07T02:32:09.714Z,0.00
2023-03-07T02:33:09.831Z,0.00
2023-03-07T02:34:09.989Z,0.00
2023-03-07T02:35:10.135Z,0.00
2023-03-07T02:36:10.309Z,0.00
2023-03-07T02:37:10.512Z,0.00
2023-03-07T02:38:10.636Z,0.00
2023-03-07T02:39:10.793Z,0.00
2023-03-07T02:40:10.960Z,0.00
2023-03-07T02:41:11.156Z,0.00
2023-03-07T02:42:11.337Z,0.00
2023-03-07T02:43:11.508Z,0.00
2023-03-07T02:44:11.670Z,0.00
2023-03-07T02:45:11.861Z,0.00
2023-03-07T02:46:12.043Z,0.00
2023-03-07T02:47:12.196Z,0.00
2023-03-07T02:48:12.348Z,0.00
2023-03-07T02:49:12.548Z,0.00
2023-03-07T02:50:12.742Z,0.00
2023-03-07T02:51:12.870Z,0.00
2023-03-07T02:52:13.029Z,0.00
2023-03-07T02:53:13.212Z,0.00
2023-03-07T02:54:13.392Z,0.00
2023-03-07T02:55:13.546Z,0.00
2023-03-07T02:56:13.709Z,0.00
2023-03-07T02:57:13.868Z,0.00
2023-03-07T02:58:14.030Z,0.00
2023-03-07T02:59:14.214Z,0.00
2023-03-07T03:00:14.372Z,0.00
2023-03-07T03:01:14.615Z,0.00
2023-03-07T03:02:14.733Z,0.00
2023-03-07T03:03:14.889Z,0.00
2023-03-07T03:04:15.143Z,0.00
2023-03-07T03:05:15.222Z,0.00
2023-03-07T03:06:15.388Z,0.00
2023-03-07T03:07:15.560Z,0.00
2023-03-07T03:08:15.751Z,0.00
2023-03-07T03:09:15.913Z,0.00
2023-03-07T03:10:16.066Z,0.00
2023-03-07T03:11:16.227Z,0.00
2023-03-07T03:12:16.393Z,0.00
2023-03-07T03:13:16.549Z,0.00
2023-03-07T03:14:16.727Z,0.00
2023-03-07T03:15:16.902Z,0.00
2023-03-07T03:16:17.123Z,0.00
2023-03-07T03:17:17.243Z,0.00
2023-03-07T03:18:17.370Z,0.00
2023-03-07T03:19:17.533Z,0.00
2023-03-07T03:20:17.713Z,0.00
2023-03-07T03:21:17.860Z,0.00
2023-03-07T03:22:18.067Z,0.00
2023-03-07T03:23:18.237Z,0.00
2023-03-07T03:24:18.403Z,0.00
2023-03-07T03:25:18.596Z,0.00
2023-03-07T03:26:18.787Z,0.00
2023-03-07T03:27:18.957Z,0.00
2023-03-07T03:28:19.116Z,0.00
2023-03-07T03:29:19.265Z,0.00
2023-03-07T03:30:19.433Z,0.00
2023-03-07T03:31:19.635Z,0.00
2023-03-07T03:32:19.814Z,0.00
2023-03-07T03:33:19.944Z,0.00
2023-03-07T03:34:20.148Z,0.00
2023-03-07T03:35:20.290Z,0.00
2023-03-07T03:36:20.493Z,0.00
2023-03-07T03:37:20.648Z,0.00
2023-03-07T03:38:20.812Z,0.00
2023-03-07T03:39:21.012Z,0.00
2023-03-07T03:40:21.169Z,0.00
2023-03-07T03:41:21.331Z,0.00
2023-03-07T03:42:21.544Z,0.00
2023-03-07T03:43:21.639Z,0.00
2023-03-07T03:44:21.824Z,0.00
2023-03-07T03:45:21.990Z,0.00
2023-03-07T03:46:22.206Z,0.00
2023-03-07T03:47:22.322Z,0.00
2023-03-07T03:48:22.496Z,0.00
2023-03-07T03:49:22.642Z,0.00
2023-03-07T03:50:22.824Z,0.00
2023-03-07T03:51:22.987Z,0.00
2023-03-07T03:52:23.133Z,0.00
2023-03-07T03:53:23.314Z,0.00
2023-03-07T03:54:23.485Z,0.00
2023-03-07T03:55:23.654Z,0.00
2023-03-07T03:56:23.829Z,0.00
2023-03-07T03:57:23.980Z,0.00
2023-03-07T03:58:24.136Z,0.00
2023-03-07T03:59:24.322Z,0.00
2023-03-07T04:00:24.480Z,0.00
2023-03-07T04:01:24.634Z,0.00
2023-03-07T04:02:24.899Z,0.00
2023-03-07T04:03:24.975Z,0.00
2023-03-07T04:04:25.159Z,0.00
2023-03-07T04:05:25.302Z,0.00
2023-03-07T04:06:25.495Z,0.00
2023-03-07T04:07:25.646Z,0.00
2023-03-07T04:08:25.832Z,0.00
2023-03-07T04:09:25.993Z,0.00
2023-03-07T04:10:26.141Z,0.00
2023-03-07T04:11:26.304Z,0.00
2023-03-07T04:12:26.467Z,0.00
2023-03-07T04:13:26.636Z,0.00
2023-03-07T04:14:26.802Z,0.00
2023-03-07T04:15:26.959Z,0.00
2023-03-07T04:16:27.240Z,0.00
2023-03-07T04:17:27.274Z,0.00
2023-03-07T04:18:27.456Z,0.00
2023-03-07T04:19:29.387Z,0.00
2023-03-07T04:20:27.802Z,0.00
2023-03-07T04:21:27.984Z,0.00
2023-03-07T04:22:28.137Z,0.00
2023-03-07T04:23:28.305Z,0.00
2023-03-07T04:24:28.463Z,0.00
2023-03-07T04:25:28.621Z,0.00
2023-03-07T04:26:28.777Z,0.00
2023-03-07T04:27:28.977Z,0.00
2023-03-07T04:28:29.138Z,0.00
2023-03-07T04:29:29.295Z,0.00
2023-03-07T04:30:29.452Z,0.00
2023-03-07T04:31:29.654Z,0.00
2023-03-07T04:32:29.845Z,0.00
2023-03-07T04:33:29.970Z,0.00
2023-03-07T04:34:31.131Z,0.00
2023-03-07T04:35:30.363Z,0.00
2023-03-07T04:36:30.487Z,0.00
2023-03-07T04:37:30.638Z,0.00
2023-03-07T04:38:30.829Z,0.00
2023-03-07T04:39:30.985Z,0.00
2023-03-07T04:40:31.136Z,0.00
2023-03-07T04:41:31.306Z,0.00
2023-03-07T04:42:31.504Z,0.00
2023-03-07T04:43:31.628Z,0.00
2023-03-07T04:44:31.791Z,0.00
2023-03-07T04:45:31.955Z,0.00
2023-03-07T04:46:32.108Z,0.00
2023-03-07T04:47:32.285Z,0.00
2023-03-07T04:48:32.439Z,0.00
2023-03-07T04:49:32.614Z,0.00
2023-03-07T04:50:32.779Z,0.00
2023-03-07T04:51:32.948Z,0.00
2023-03-07T04:52:33.104Z,0.00
2023-03-07T04:53:33.272Z,0.00
2023-03-07T04:54:33.442Z,0.00
2023-03-07T04:55:33.599Z,0.00
2023-03-07T04:56:33.775Z,0.00
2023-03-07T04:57:33.942Z,0.00
2023-03-07T04:58:34.104Z,0.00
2023-03-07T04:59:34.269Z,0.00
2023-03-07T05:00:34.458Z,0.00
2023-03-07T05:01:34.664Z,0.00
2023-03-07T05:02:34.796Z,0.00
2023-03-07T05:03:34.955Z,0.00
2023-03-07T05:04:35.186Z,0.00
2023-03-07T05:05:37.518Z,0.00
2023-03-07T05:06:35.431Z,0.00
2023-03-07T05:07:35.598Z,0.00
2023-03-07T05:08:35.756Z,0.00
2023-03-07T05:09:35.943Z,0.00
2023-03-07T05:10:36.127Z,0.00
2023-03-07T05:11:36.267Z,0.00
2023-03-07T05:12:36.417Z,0.00
2023-03-07T05:13:36.585Z,0.00
2023-03-07T05:14:36.768Z,0.00
2023-03-07T05:15:36.934Z,0.00
2023-03-07T05:16:37.106Z,0.00
2023-03-07T05:17:37.244Z,0.00
2023-03-07T05:18:37.389Z,0.00
2023-03-07T05:19:37.614Z,0.00
2023-03-07T05:20:37.754Z,0.00
2023-03-07T05:21:37.935Z,0.00
2023-03-07T05:22:38.086Z,0.00
2023-03-07T05:23:38.255Z,0.00
2023-03-07T05:24:38.431Z,0.00
2023-03-07T05:25:38.609Z,0.00
2023-03-07T05:26:38.764Z,0.00
2023-03-07T05:27:38.963Z,0.00
2023-03-07T05:28:39.106Z,0.00
2023-03-07T05:29:39.284Z,0.00
2023-03-07T05:30:39.448Z,0.00
2023-03-07T05:31:39.625Z,0.00
2023-03-07T05:32:39.850Z,0.00
2023-03-07T05:33:39.976Z,0.00
2023-03-07T05:34:40.192Z,4.00
2023-03-07T05:35:40.408Z,4.00
2023-03-07T05:36:40.494Z,4.00
2023-03-07T05:37:40.658Z,4.00
2023-03-07T05:38:40.814Z,4.00
2023-03-07T05:39:40.978Z,4.00
2023-03-07T05:40:41.176Z,0.00
2023-03-07T05:41:41.320Z,0.00
2023-03-07T05:42:41.498Z,0.00
2023-03-07T05:43:41.647Z,4.00
2023-03-07T05:44:41.877Z,4.00
2023-03-07T05:45:42.004Z,4.00
2023-03-07T05:46:42.169Z,4.00
2023-03-07T05:47:42.341Z,4.00
2023-03-07T05:48:42.501Z,4.00
2023-03-07T05:49:42.683Z,8.00
2023-03-07T05:50:42.860Z,8.00
2023-03-07T05:51:43.018Z,4.00
2023-03-07T05:52:43.168Z,8.00
2023-03-07T05:53:43.330Z,8.00
2023-03-07T05:54:43.510Z,8.00
2023-03-07T05:55:43.675Z,4.00
2023-03-07T05:56:43.838Z,8.00
2023-03-07T05:57:44.013Z,12.00
2023-03-07T05:58:44.183Z,8.00
2023-03-07T05:59:44.377Z,12.00
2023-03-07T06:00:44.509Z,12.00
2023-03-07T06:01:44.689Z,16.00
2023-03-07T06:02:44.904Z,16.00
2023-03-07T06:03:45.113Z,20.00
2023-03-07T06:04:45.233Z,20.00
2023-03-07T06:05:45.420Z,20.00
2023-03-07T06:06:45.601Z,24.00
2023-03-07T06:07:45.771Z,28.00
2023-03-07T06:08:45.950Z,32.00
2023-03-07T06:09:46.148Z,32.00
2023-03-07T06:10:46.303Z,40.00
2023-03-07T06:11:46.466Z,40.00
2023-03-07T06:12:46.638Z,44.00
2023-03-07T06:13:46.848Z,44.00
2023-03-07T06:14:47.005Z,44.00
2023-03-07T06:15:47.186Z,40.00
2023-03-07T06:16:47.340Z,44.00
2023-03-07T06:17:47.529Z,40.00
2023-03-07T06:18:47.723Z,44.00
2023-03-07T06:19:47.881Z,44.00
2023-03-07T06:20:48.010Z,48.00
2023-03-07T06:21:48.222Z,52.00
2023-03-07T06:22:48.364Z,56.00
2023-03-07T06:23:48.584Z,56.00
2023-03-07T06:24:48.734Z,56.00
2023-03-07T06:25:48.900Z,56.00
2023-03-07T06:26:49.094Z,60.00
2023-03-07T06:27:49.260Z,60.00
2023-03-07T06:28:49.450Z,60.00
2023-03-07T06:29:49.632Z,52.00
2023-03-07T06:30:49.803Z,52.00
2023-03-07T06:31:50.005Z,56.00
2023-03-07T06:32:50.217Z,56.00
2023-03-07T06:33:50.368Z,60.00
2023-03-07T06:34:50.532Z,68.00
2023-03-07T06:35:50.743Z,68.00
2023-03-07T06:36:50.894Z,64.00
2023-03-07T06:37:51.078Z,68.00
2023-03-07T06:38:51.246Z,64.00
2023-03-07T06:39:51.384Z,72.00
2023-03-07T06:40:51.558Z,80.00
2023-03-07T06:41:51.739Z,84.00
2023-03-07T06:42:51.932Z,88.00
2023-03-07T06:43:52.074Z,88.00
2023-03-07T06:44:52.265Z,88.00
2023-03-07T06:45:52.460Z,88.00
2023-03-07T06:46:52.614Z,92.00
2023-03-07T06:47:52.758Z,88.00
2023-03-07T06:48:52.936Z,80.00
2023-03-07T06:49:53.117Z,76.00
2023-03-07T06:50:53.287Z,80.00
2023-03-07T06:51:53.478Z,72.00
2023-03-07T06:52:53.633Z,76.00
2023-03-07T06:53:53.811Z,80.00
2023-03-07T06:54:53.976Z,100.00
2023-03-07T06:55:54.188Z,96.00
2023-03-07T06:56:54.361Z,96.00
2023-03-07T06:57:54.509Z,104.00
2023-03-07T06:58:54.680Z,112.00
2023-03-07T06:59:54.856Z,124.00
2023-03-07T07:00:55.020Z,136.00
2023-03-07T07:01:55.259Z,148.00
2023-03-07T07:02:55.466Z,160.00
2023-03-07T07:03:55.542Z,184.00
2023-03-07T07:04:55.680Z,172.00
2023-03-07T07:05:55.856Z,176.00
2023-03-07T07:06:56.029Z,176.00
2023-03-07T07:07:56.201Z,184.00
2023-03-07T07:08:56.398Z,184.00
2023-03-07T07:09:56.528Z,184.00
2023-03-07T07:10:56.704Z,184.00
2023-03-07T07:11:56.889Z,192.00
2023-03-07T07:12:57.078Z,188.00
2023-03-07T07:13:57.216Z,196.00
2023-03-07T07:14:57.370Z,188.00
2023-03-07T07:15:57.543Z,176.00
2023-03-07T07:16:57.745Z,164.00
2023-03-07T07:17:57.891Z,140.00
2023-03-07T07:18:58.067Z,128.00
2023-03-07T07:19:58.245Z,140.00
2023-03-07T07:20:58.401Z,160.00
2023-03-07T07:21:58.613Z,176.00
2023-03-07T07:22:58.723Z,188.00
2023-03-07T07:23:58.908Z,196.00
2023-03-07T07:24:59.090Z,192.00
2023-03-07T07:25:59.269Z,176.00
2023-03-07T07:26:59.436Z,180.00
2023-03-07T07:27:59.621Z,192.00
2023-03-07T07:28:59.790Z,200.00
2023-03-07T07:29:59.948Z,216.00
2023-03-07T07:31:00.119Z,212.00
2023-03-07T07:32:00.426Z,184.00
2023-03-07T07:33:00.575Z,168.00
2023-03-07T07:34:00.634Z,172.00
2023-03-07T07:35:00.828Z,160.00
2023-03-07T07:36:01.002Z,152.00
2023-03-07T07:37:01.150Z,152.00
2023-03-07T07:38:01.323Z,128.00
2023-03-07T07:39:01.484Z,112.00
2023-03-07T07:40:01.669Z,104.00
2023-03-07T07:41:01.856Z,96.00
2023-03-07T07:42:02.007Z,96.00
2023-03-07T07:43:02.159Z,84.00
2023-03-07T07:44:02.342Z,92.00
2023-03-07T07:45:02.510Z,96.00
2023-03-07T07:46:02.769Z,96.00
2023-03-07T07:47:02.895Z,100.00
2023-03-07T07:48:03.041Z,104.00
2023-03-07T07:49:03.243Z,100.00
2023-03-07T07:50:03.432Z,108.00
2023-03-07T07:51:03.580Z,116.00
2023-03-07T07:52:03.808Z,140.00
2023-03-07T07:53:03.930Z,164.00
2023-03-07T07:54:04.155Z,172.00
2023-03-07T07:55:04.312Z,164.00
2023-03-07T07:56:04.488Z,152.00
2023-03-07T07:57:04.658Z,184.00
2023-03-07T07:58:04.808Z,204.00
2023-03-07T07:59:04.992Z,192.00
2023-03-07T08:00:05.157Z,192.00
2023-03-07T08:01:05.323Z,172.00
2023-03-07T08:02:05.528Z,168.00
2023-03-07T08:03:05.715Z,164.00
2023-03-07T08:04:05.875Z,192.00
2023-03-07T08:05:06.033Z,204.00
2023-03-07T08:06:06.213Z,192.00
2023-03-07T08:07:06.410Z,204.00
2023-03-07T08:08:06.590Z,304.00
2023-03-07T08:09:06.738Z,296.00
2023-03-07T08:10:06.908Z,280.00
2023-03-07T08:11:07.079Z,316.00
2023-03-07T08:12:07.248Z,304.00
2023-03-07T08:13:07.420Z,312.00
2023-03-07T08:14:07.627Z,316.00
2023-03-07T08:15:07.764Z,332.00
2023-03-07T08:16:07.963Z,308.00
2023-03-07T08:17:08.127Z,280.00
2023-03-07T08:18:08.290Z,288.00
2023-03-07T08:19:08.501Z,312.00
2023-03-07T08:20:08.642Z,320.00
2023-03-07T08:21:08.838Z,320.00
2023-03-07T08:22:08.995Z,292.00
2023-03-07T08:23:09.279Z,292.00
2023-03-07T08:24:09.347Z,304.00
2023-03-07T08:25:09.528Z,336.00
2023-03-07T08:26:09.707Z,360.00
2023-03-07T08:27:09.861Z,360.00
2023-03-07T08:28:10.060Z,336.00
2023-03-07T08:29:10.230Z,344.00
2023-03-07T08:30:10.407Z,368.00
2023-03-07T08:31:10.612Z,424.00
2023-03-07T08:32:12.132Z,520.00
2023-03-07T08:33:10.957Z,580.00
2023-03-07T08:34:11.095Z,608.00
2023-03-07T08:35:11.266Z,636.00
2023-03-07T08:36:11.426Z,648.00
2023-03-07T08:37:11.612Z,644.00
2023-03-07T08:38:11.798Z,640.00
2023-03-07T08:39:11.954Z,664.00
2023-03-07T08:40:12.129Z,624.00
2023-03-07T08:41:12.302Z,648.00
2023-03-07T08:42:12.493Z,668.00
2023-03-07T08:43:12.672Z,708.00
2023-03-07T08:44:12.824Z,756.00
2023-03-07T08:45:12.994Z,780.00
2023-03-07T08:46:13.242Z,740.00
2023-03-07T08:47:13.357Z,672.00
2023-03-07T08:48:13.589Z,596.00
2023-03-07T08:49:13.732Z,528.00
2023-03-07T08:50:13.878Z,584.00
2023-03-07T08:51:14.061Z,588.00
2023-03-07T08:52:14.234Z,528.00
2023-03-07T08:53:14.443Z,492.00
2023-03-07T08:54:14.599Z,524.00
2023-03-07T08:55:14.774Z,524.00
2023-03-07T08:56:14.947Z,532.00
2023-03-07T08:57:15.127Z,600.00
2023-03-07T08:58:15.339Z,616.00
2023-03-07T08:59:15.491Z,692.00
2023-03-07T09:00:15.676Z,712.00
2023-03-07T09:01:15.848Z,624.00
2023-03-07T09:02:16.022Z,572.00
2023-03-07T09:03:16.254Z,556.00
2023-03-07T09:04:16.462Z,612.00
2023-03-07T09:05:16.582Z,664.00
2023-03-07T09:06:16.747Z,732.00
2023-03-07T09:07:16.931Z,628.00
2023-03-07T09:08:17.122Z,556.00
2023-03-07T09:09:17.262Z,604.00
2023-03-07T09:10:17.443Z,704.00
2023-03-07T09:11:17.638Z,780.00
2023-03-07T09:12:17.803Z,852.00
2023-03-07T09:13:18.438Z,788.00
2023-03-07T09:14:18.163Z,884.00
2023-03-07T09:15:18.368Z,872.00
2023-03-07T09:16:18.528Z,820.00
2023-03-07T09:17:18.692Z,776.00
2023-03-07T09:18:18.903Z,720.00
2023-03-07T09:19:19.069Z,880.00
2023-03-07T09:20:19.251Z,960.00
2023-03-07T09:21:19.443Z,1072.00
2023-03-07T09:22:19.578Z,1196.00
2023-03-07T09:23:19.835Z,1056.00
2023-03-07T09:24:19.917Z,1128.00
2023-03-07T09:25:20.134Z,1132.00
2023-03-07T09:26:20.283Z,1192.00
2023-03-07T09:27:20.478Z,1108.00
2023-03-07T09:28:20.638Z,1088.00
2023-03-07T09:29:20.811Z,772.00
2023-03-07T09:30:21.078Z,676.00
2023-03-07T09:31:21.265Z,596.00
2023-03-07T09:32:21.366Z,548.00
2023-03-07T09:33:21.523Z,532.00
2023-03-07T09:34:21.698Z,540.00
2023-03-07T09:35:21.895Z,540.00
2023-03-07T09:36:22.047Z,536.00
2023-03-07T09:37:22.232Z,552.00
2023-03-07T09:38:22.448Z,544.00
2023-03-07T09:39:22.604Z,532.00
2023-03-07T09:40:22.785Z,532.00
2023-03-07T09:41:22.946Z,524.00
2023-03-07T09:42:23.128Z,512.00
2023-03-07T09:43:23.325Z,468.00
2023-03-07T09:44:23.504Z,432.00
2023-03-07T09:45:23.710Z,424.00
2023-03-07T09:46:23.824Z,424.00
2023-03-07T09:47:24.068Z,424.00
2023-03-07T09:48:24.200Z,416.00
2023-03-07T09:49:24.368Z,408.00
2023-03-07T09:50:24.522Z,412.00
2023-03-07T09:51:24.687Z,408.00
2023-03-07T09:52:24.885Z,400.00
2023-03-07T09:53:25.050Z,396.00
2023-03-07T09:54:25.237Z,392.00
2023-03-07T09:55:25.419Z,384.00
2023-03-07T09:56:25.611Z,400.00
2023-03-07T09:57:25.763Z,420.00
2023-03-07T09:58:25.964Z,448.00
2023-03-07T09:59:26.126Z,476.00
2023-03-07T10:00:26.343Z,496.00
2023-03-07T10:01:26.500Z,500.00
2023-03-07T10:02:26.678Z,468.00
2023-03-07T10:03:26.884Z,492.00
2023-03-07T10:04:27.082Z,500.00
2023-03-07T10:05:27.220Z,508.00
2023-03-07T10:06:27.380Z,536.00
2023-03-07T10:07:27.561Z,500.00
2023-03-07T10:08:27.730Z,476.00
2023-03-07T10:09:28.019Z,472.00
2023-03-07T10:10:28.100Z,484.00
2023-03-07T10:11:28.314Z,484.00
2023-03-07T10:12:28.440Z,524.00
2023-03-07T10:13:28.586Z,560.00
2023-03-07T10:14:28.833Z,572.00
2023-03-07T10:15:28.994Z,548.00
2023-03-07T10:16:29.145Z,528.00
2023-03-07T10:17:29.305Z,564.00
2023-03-07T10:18:29.477Z,580.00
2023-03-07T10:19:29.676Z,536.00
2023-03-07T10:20:29.862Z,568.00
2023-03-07T10:21:30.041Z,544.00
2023-03-07T10:22:30.231Z,536.00
2023-03-07T10:23:30.405Z,568.00
2023-03-07T10:24:30.588Z,568.00
2023-03-07T10:25:30.763Z,568.00
2023-03-07T10:26:30.924Z,544.00
2023-03-07T10:27:31.108Z,536.00
2023-03-07T10:28:31.294Z,544.00
2023-03-07T10:29:31.475Z,544.00
2023-03-07T10:30:31.666Z,556.00
2023-03-07T10:31:31.835Z,536.00
2023-03-07T10:32:32.027Z,544.00
2023-03-07T10:33:32.174Z,532.00
2023-03-07T10:35:47.491Z,508.00
2023-03-07T10:36:49.046Z,472.00
2023-03-07T10:37:47.767Z,480.00
2023-03-07T10:38:47.939Z,500.00
2023-03-07T10:39:48.118Z,520.00
2023-03-07T10:40:48.308Z,576.00
2023-03-07T10:41:48.476Z,572.00
2023-03-07T10:42:48.651Z,572.00
2023-03-07T10:43:48.841Z,540.00
2023-03-07T10:44:49.059Z,536.00
2023-03-07T10:45:49.252Z,564.00
2023-03-07T10:46:55.684Z,552.00
2023-03-07T10:47:50.514Z,552.00
2023-03-07T10:48:49.672Z,552.00
2023-03-07T10:49:49.848Z,568.00
2023-03-07T10:50:50.028Z,564.00
2023-03-07T10:51:50.187Z,520.00
2023-03-07T10:52:50.372Z,528.00
2023-03-07T10:53:50.559Z,500.00
2023-03-07T10:54:50.718Z,492.00
2023-03-07T10:55:50.910Z,536.00
2023-03-07T10:56:51.092Z,556.00
2023-03-07T10:57:51.262Z,556.00
2023-03-07T10:58:51.419Z,528.00
2023-03-07T10:59:51.601Z,556.00
2023-03-07T11:00:51.769Z,560.00
2023-03-07T11:01:51.974Z,572.00
2023-03-07T11:02:52.114Z,588.00
2023-03-07T11:03:55.329Z,560.00
2023-03-07T11:04:52.560Z,540.00
2023-03-07T11:05:52.638Z,468.00
2023-03-07T11:06:52.838Z,440.00
2023-03-07T11:07:52.996Z,460.00
2023-03-07T11:08:53.148Z,424.00
2023-03-07T11:09:53.350Z,376.00
2023-03-07T11:10:53.508Z,316.00
2023-03-07T11:11:53.663Z,388.00
2023-03-07T11:12:53.854Z,360.00
2023-03-07T11:13:54.047Z,348.00
2023-03-07T11:14:54.233Z,356.00
2023-03-07T11:16:06.085Z,372.00
2023-03-07T11:16:55.552Z,384.00
2023-03-07T11:17:54.738Z,428.00
2023-03-07T11:18:54.892Z,468.00
2023-03-07T11:19:55.110Z,496.00
2023-03-07T11:20:55.260Z,512.00
2023-03-07T11:21:55.456Z,520.00
2023-03-07T11:22:55.639Z,508.00
2023-03-07T11:23:55.839Z,488.00
2023-03-07T11:24:55.977Z,444.00
2023-03-07T11:25:56.149Z,412.00
2023-03-07T11:26:56.306Z,400.00
2023-03-07T11:27:56.523Z,412.00
2023-03-07T11:28:56.690Z,432.00
2023-03-07T11:29:56.893Z,416.00
2023-03-07T11:30:57.058Z,396.00
2023-03-07T11:31:57.240Z,384.00
2023-03-07T11:32:57.402Z,376.00
2023-03-07T11:33:59.389Z,352.00
2023-03-07T11:34:57.722Z,364.00
2023-03-07T11:35:57.930Z,364.00
2023-03-07T11:36:58.083Z,384.00
2023-03-07T11:37:58.298Z,392.00
2023-03-07T11:38:58.432Z,420.00
2023-03-07T11:39:58.585Z,412.00
2023-03-07T11:40:58.776Z,404.00
2023-03-07T11:41:58.965Z,388.00
2023-03-07T11:42:59.119Z,404.00
2023-03-07T11:43:59.308Z,384.00
2023-03-07T11:44:59.502Z,376.00
2023-03-07T11:45:59.658Z,376.00
2023-03-07T11:46:59.835Z,372.00
2023-03-07T11:48:00.031Z,736.00
2023-03-07T11:49:00.155Z,752.00
2023-03-07T11:50:00.331Z,724.00
2023-03-07T11:51:00.496Z,744.00
2023-03-07T11:52:00.696Z,712.00
2023-03-07T11:53:00.854Z,728.00
2023-03-07T11:54:01.038Z,716.00
2023-03-07T11:55:01.191Z,660.00
2023-03-07T11:56:01.381Z,684.00
2023-03-07T11:57:01.552Z,696.00
2023-03-07T11:58:01.727Z,672.00
2023-03-07T11:59:01.893Z,656.00
2023-03-07T12:00:02.055Z,640.00
2023-03-07T12:01:02.202Z,604.00
2023-03-07T12:02:02.418Z,576.00
2023-03-07T12:03:02.618Z,512.00
2023-03-07T12:04:02.738Z,488.00
2023-03-07T12:05:02.871Z,484.00
2023-03-07T12:06:03.163Z,504.00
2023-03-07T12:07:03.197Z,484.00
2023-03-07T12:08:03.381Z,504.00
2023-03-07T12:09:03.540Z,520.00
2023-03-07T12:10:03.692Z,528.00
2023-03-07T12:11:03.869Z,504.00
2023-03-07T12:12:04.036Z,472.00
2023-03-07T12:13:04.192Z,448.00
2023-03-07T12:14:04.390Z,436.00
2023-03-07T12:15:04.545Z,456.00
2023-03-07T12:16:04.811Z,464.00
2023-03-07T12:17:04.881Z,528.00
2023-03-07T12:18:05.058Z,604.00
2023-03-07T12:19:05.225Z,656.00
2023-03-07T12:20:05.389Z,728.00
2023-03-07T12:21:05.564Z,728.00
2023-03-07T12:22:05.740Z,720.00
2023-03-07T12:23:05.914Z,672.00
2023-03-07T12:24:06.125Z,616.00
2023-03-07T12:25:06.249Z,576.00
2023-03-07T12:26:06.462Z,584.00
2023-03-07T12:27:06.614Z,624.00
2023-03-07T12:28:06.778Z,672.00
2023-03-07T12:29:06.954Z,712.00
2023-03-07T12:30:07.161Z,744.00
2023-03-07T12:31:07.293Z,708.00
2023-03-07T12:32:07.652Z,716.00
2023-03-07T12:33:07.724Z,752.00
2023-03-07T12:34:07.848Z,756.00
2023-03-07T12:35:08.018Z,700.00
2023-03-07T12:36:08.255Z,632.00
2023-03-07T12:37:08.360Z,608.00
2023-03-07T12:38:08.510Z,588.00
2023-03-07T12:39:08.667Z,556.00
2023-03-07T12:40:08.856Z,536.00
2023-03-07T12:41:09.009Z,528.00
2023-03-07T12:42:09.199Z,560.00
2023-03-07T12:43:09.364Z,596.00
2023-03-07T12:44:09.523Z,620.00
2023-03-07T12:45:09.720Z,624.00
2023-03-07T12:46:09.903Z,632.00
2023-03-07T12:47:10.053Z,636.00
2023-03-07T12:48:10.232Z,628.00
2023-03-07T12:49:10.400Z,620.00
2023-03-07T12:50:10.579Z,608.00
2023-03-07T12:51:10.741Z,584.00
2023-03-07T12:52:10.979Z,580.00
2023-03-07T12:53:11.109Z,572.00
2023-03-07T12:54:11.298Z,564.00
2023-03-07T12:55:11.501Z,568.00
2023-03-07T12:56:11.684Z,564.00